Terminal Aerodrome Forecast
Issued by NWS

Home | Current Version | Previous Version | Text Only | Print | Product List | Glossary On
Versions: 1 2 3 4 5 6 7 8 9 10 11 12 13 14 15 16 17 18 19 20 21 22 23 24 25 26 27 28 29
000
FTUS43 KSGF 260100 AAA
TAFJLN
TAF AMD
KJLN 260146Z 2602/2624 15011KT P6SM -SHRA VCTS SCT030 BKN040CB
      TEMPO 2602/2605 5SM -TSRA BR OVC020CB
     FM260600 VRB04KT P6SM VCSH OVC009
      TEMPO 2606/2609 4SM -SHRA BR
     FM261000 24006KT P6SM BKN010
     FM261300 24009KT P6SM SCT250=

USA.gov is the U.S. government's official web portal to all federal, state and local government web resources and services.